sensor_id;sensor_type;location;lat;lon;timestamp;P1;durP1;ratioP1;P2;durP2;ratioP2
46036;SDS011;31769;49.304;8.428;2023-07-28T00:00:18;3.70;;;2.63;;
46036;SDS011;31769;49.304;8.428;2023-07-28T00:03:19;3.35;;;2.72;;
46036;SDS011;31769;49.304;8.428;2023-07-28T00:06:20;2.88;;;2.67;;
46036;SDS011;31769;49.304;8.428;2023-07-28T00:09:20;4.05;;;2.40;;
46036;SDS011;31769;49.304;8.428;2023-07-28T00:12:23;3.70;;;3.25;;
46036;SDS011;31769;49.304;8.428;2023-07-28T00:15:23;4.10;;;3.50;;
46036;SDS011;31769;49.304;8.428;2023-07-28T00:18:24;2.95;;;2.75;;
46036;SDS011;31769;49.304;8.428;2023-07-28T00:21:25;4.13;;;2.70;;
46036;SDS011;31769;49.304;8.428;2023-07-28T00:24:26;3.42;;;2.60;;
46036;SDS011;31769;49.304;8.428;2023-07-28T00:27:27;3.58;;;2.28;;
46036;SDS011;31769;49.304;8.428;2023-07-28T00:30:28;3.35;;;3.00;;
46036;SDS011;31769;49.304;8.428;2023-07-28T00:33:29;3.20;;;2.90;;
46036;SDS011;31769;49.304;8.428;2023-07-28T00:36:30;3.10;;;2.80;;
46036;SDS011;31769;49.304;8.428;2023-07-28T00:39:32;6.00;;;2.97;;
46036;SDS011;31769;49.304;8.428;2023-07-28T00:42:34;3.28;;;2.97;;
46036;SDS011;31769;49.304;8.428;2023-07-28T00:45:35;3.03;;;2.50;;
46036;SDS011;31769;49.304;8.428;2023-07-28T00:48:36;3.55;;;2.78;;
46036;SDS011;31769;49.304;8.428;2023-07-28T00:51:37;3.05;;;2.75;;
46036;SDS011;31769;49.304;8.428;2023-07-28T00:54:38;2.70;;;2.40;;
46036;SDS011;31769;49.304;8.428;2023-07-28T00:57:39;3.05;;;2.78;;
46036;SDS011;31769;49.304;8.428;2023-07-28T01:00:40;7.53;;;2.75;;
46036;SDS011;31769;49.304;8.428;2023-07-28T01:03:41;2.60;;;2.40;;
46036;SDS011;31769;49.304;8.428;2023-07-28T01:06:52;2.80;;;2.63;;
46036;SDS011;31769;49.304;8.428;2023-07-28T01:10:12;4.25;;;2.75;;
46036;SDS011;31769;49.304;8.428;2023-07-28T01:13:17;4.10;;;3.03;;
46036;SDS011;31769;49.304;8.428;2023-07-28T01:16:17;2.40;;;2.30;;
46036;SDS011;31769;49.304;8.428;2023-07-28T01:19:19;3.28;;;2.92;;
46036;SDS011;31769;49.304;8.428;2023-07-28T01:25:27;3.10;;;2.70;;
46036;SDS011;31769;49.304;8.428;2023-07-28T01:28:47;3.30;;;2.60;;
46036;SDS011;31769;49.304;8.428;2023-07-28T01:31:48;7.60;;;2.67;;
46036;SDS011;31769;49.304;8.428;2023-07-28T01:34:49;2.97;;;2.78;;
46036;SDS011;31769;49.304;8.428;2023-07-28T01:37:49;3.08;;;2.88;;
46036;SDS011;31769;49.304;8.428;2023-07-28T01:40:50;3.13;;;2.83;;
46036;SDS011;31769;49.304;8.428;2023-07-28T01:43:51;2.92;;;2.72;;
46036;SDS011;31769;49.304;8.428;2023-07-28T01:46:55;2.90;;;2.70;;
46036;SDS011;31769;49.304;8.428;2023-07-28T01:49:56;3.95;;;2.85;;
46036;SDS011;31769;49.304;8.428;2023-07-28T01:52:57;2.95;;;2.72;;
46036;SDS011;31769;49.304;8.428;2023-07-28T01:55:57;3.10;;;2.78;;
46036;SDS011;31769;49.304;8.428;2023-07-28T01:58:58;4.05;;;3.10;;
46036;SDS011;31769;49.304;8.428;2023-07-28T02:01:59;3.00;;;2.80;;
46036;SDS011;31769;49.304;8.428;2023-07-28T02:04:59;3.15;;;2.95;;
46036;SDS011;31769;49.304;8.428;2023-07-28T02:08:00;3.53;;;2.88;;
46036;SDS011;31769;49.304;8.428;2023-07-28T02:11:00;5.97;;;3.42;;
46036;SDS011;31769;49.304;8.428;2023-07-28T02:14:01;3.58;;;3.28;;
46036;SDS011;31769;49.304;8.428;2023-07-28T02:17:02;3.28;;;3.03;;
46036;SDS011;31769;49.304;8.428;2023-07-28T02:20:03;4.50;;;3.10;;
46036;SDS011;31769;49.304;8.428;2023-07-28T02:23:04;4.90;;;3.10;;
46036;SDS011;31769;49.304;8.428;2023-07-28T02:26:04;7.63;;;3.25;;
46036;SDS011;31769;49.304;8.428;2023-07-28T02:29:05;3.47;;;3.00;;
46036;SDS011;31769;49.304;8.428;2023-07-28T02:32:06;3.38;;;3.08;;
46036;SDS011;31769;49.304;8.428;2023-07-28T02:35:07;4.75;;;3.20;;
46036;SDS011;31769;49.304;8.428;2023-07-28T02:38:08;3.90;;;2.78;;
46036;SDS011;31769;49.304;8.428;2023-07-28T02:41:09;3.85;;;2.55;;
46036;SDS011;31769;49.304;8.428;2023-07-28T02:44:10;2.75;;;2.30;;
46036;SDS011;31769;49.304;8.428;2023-07-28T02:47:10;2.25;;;2.05;;
46036;SDS011;31769;49.304;8.428;2023-07-28T02:50:11;2.88;;;2.40;;
46036;SDS011;31769;49.304;8.428;2023-07-28T02:53:12;2.67;;;2.08;;
46036;SDS011;31769;49.304;8.428;2023-07-28T02:56:13;3.08;;;1.92;;
46036;SDS011;31769;49.304;8.428;2023-07-28T02:59:13;2.13;;;1.92;;
46036;SDS011;31769;49.304;8.428;2023-07-28T03:02:14;2.50;;;2.15;;
46036;SDS011;31769;49.304;8.428;2023-07-28T03:05:15;1.80;;;1.70;;
46036;SDS011;31769;49.304;8.428;2023-07-28T03:08:19;2.05;;;1.80;;
46036;SDS011;31769;49.304;8.428;2023-07-28T03:11:21;3.25;;;1.95;;
46036;SDS011;31769;49.304;8.428;2023-07-28T03:14:22;1.52;;;1.42;;
46036;SDS011;31769;49.304;8.428;2023-07-28T03:17:23;2.58;;;2.00;;
46036;SDS011;31769;49.304;8.428;2023-07-28T03:20:25;2.33;;;1.60;;
46036;SDS011;31769;49.304;8.428;2023-07-28T03:23:25;1.60;;;1.50;;
46036;SDS011;31769;49.304;8.428;2023-07-28T03:26:26;1.75;;;1.45;;
46036;SDS011;31769;49.304;8.428;2023-07-28T03:29:28;2.03;;;1.80;;
46036;SDS011;31769;49.304;8.428;2023-07-28T03:32:28;3.28;;;1.60;;
46036;SDS011;31769;49.304;8.428;2023-07-28T03:35:29;2.40;;;1.63;;
46036;SDS011;31769;49.304;8.428;2023-07-28T03:38:37;2.13;;;1.65;;
46036;SDS011;31769;49.304;8.428;2023-07-28T03:41:39;1.90;;;1.63;;
46036;SDS011;31769;49.304;8.428;2023-07-28T03:44:40;2.90;;;1.80;;
46036;SDS011;31769;49.304;8.428;2023-07-28T03:47:41;1.60;;;1.50;;
46036;SDS011;31769;49.304;8.428;2023-07-28T03:50:42;2.22;;;1.67;;
46036;SDS011;31769;49.304;8.428;2023-07-28T03:53:43;1.75;;;1.52;;
46036;SDS011;31769;49.304;8.428;2023-07-28T03:56:43;2.55;;;1.60;;
46036;SDS011;31769;49.304;8.428;2023-07-28T03:59:44;1.67;;;1.58;;
46036;SDS011;31769;49.304;8.428;2023-07-28T04:02:45;1.90;;;1.67;;
46036;SDS011;31769;49.304;8.428;2023-07-28T04:05:45;2.03;;;1.30;;
46036;SDS011;31769;49.304;8.428;2023-07-28T04:08:46;2.15;;;1.40;;
46036;SDS011;31769;49.304;8.428;2023-07-28T04:11:47;2.88;;;1.60;;
46036;SDS011;31769;49.304;8.428;2023-07-28T04:14:47;2.25;;;1.63;;
46036;SDS011;31769;49.304;8.428;2023-07-28T04:17:48;1.65;;;1.15;;
46036;SDS011;31769;49.304;8.428;2023-07-28T04:20:49;1.58;;;1.40;;
46036;SDS011;31769;49.304;8.428;2023-07-28T04:23:49;1.90;;;1.33;;
46036;SDS011;31769;49.304;8.428;2023-07-28T04:26:50;1.63;;;1.27;;
46036;SDS011;31769;49.304;8.428;2023-07-28T04:29:52;4.63;;;1.40;;
46036;SDS011;31769;49.304;8.428;2023-07-28T04:32:55;2.85;;;1.50;;
46036;SDS011;31769;49.304;8.428;2023-07-28T04:36:02;1.60;;;1.50;;
46036;SDS011;31769;49.304;8.428;2023-07-28T04:39:07;1.38;;;1.35;;
46036;SDS011;31769;49.304;8.428;2023-07-28T04:42:08;2.58;;;1.70;;
46036;SDS011;31769;49.304;8.428;2023-07-28T04:45:13;1.52;;;1.42;;
46036;SDS011;31769;49.304;8.428;2023-07-28T04:48:14;1.00;;;1.00;;
46036;SDS011;31769;49.304;8.428;2023-07-28T04:51:14;2.63;;;1.25;;
46036;SDS011;31769;49.304;8.428;2023-07-28T04:54:35;1.63;;;1.45;;
46036;SDS011;31769;49.304;8.428;2023-07-28T04:57:36;2.33;;;1.40;;
46036;SDS011;31769;49.304;8.428;2023-07-28T05:00:36;2.13;;;1.90;;
46036;SDS011;31769;49.304;8.428;2023-07-28T05:03:37;1.95;;;1.73;;
46036;SDS011;31769;49.304;8.428;2023-07-28T05:07:00;2.50;;;1.52;;
46036;SDS011;31769;49.304;8.428;2023-07-28T05:10:01;1.45;;;1.35;;
46036;SDS011;31769;49.304;8.428;2023-07-28T05:13:02;3.85;;;1.80;;
46036;SDS011;31769;49.304;8.428;2023-07-28T05:16:04;2.08;;;1.98;;
46036;SDS011;31769;49.304;8.428;2023-07-28T05:19:24;1.23;;;1.13;;
46036;SDS011;31769;49.304;8.428;2023-07-28T05:22:30;1.80;;;1.70;;
46036;SDS011;31769;49.304;8.428;2023-07-28T05:25:31;1.58;;;1.48;;
46036;SDS011;31769;49.304;8.428;2023-07-28T05:28:33;1.50;;;1.40;;
46036;SDS011;31769;49.304;8.428;2023-07-28T05:31:35;1.50;;;1.40;;
46036;SDS011;31769;49.304;8.428;2023-07-28T05:34:41;1.83;;;1.73;;
46036;SDS011;31769;49.304;8.428;2023-07-28T05:37:43;1.83;;;1.73;;
46036;SDS011;31769;49.304;8.428;2023-07-28T05:40:44;2.22;;;1.60;;
46036;SDS011;31769;49.304;8.428;2023-07-28T05:43:45;2.22;;;1.77;;
46036;SDS011;31769;49.304;8.428;2023-07-28T05:46:45;1.80;;;1.70;;
46036;SDS011;31769;49.304;8.428;2023-07-28T05:49:48;1.83;;;1.73;;
46036;SDS011;31769;49.304;8.428;2023-07-28T05:52:49;1.92;;;1.83;;
46036;SDS011;31769;49.304;8.428;2023-07-28T05:55:49;1.75;;;1.55;;
46036;SDS011;31769;49.304;8.428;2023-07-28T05:58:51;1.85;;;1.73;;
46036;SDS011;31769;49.304;8.428;2023-07-28T06:01:52;1.40;;;1.38;;
46036;SDS011;31769;49.304;8.428;2023-07-28T06:05:05;1.55;;;1.48;;
46036;SDS011;31769;49.304;8.428;2023-07-28T06:08:06;2.25;;;1.52;;
46036;SDS011;31769;49.304;8.428;2023-07-28T06:11:07;1.48;;;1.38;;
46036;SDS011;31769;49.304;8.428;2023-07-28T06:14:08;1.30;;;1.20;;
46036;SDS011;31769;49.304;8.428;2023-07-28T06:17:10;1.10;;;1.10;;
46036;SDS011;31769;49.304;8.428;2023-07-28T06:20:11;1.52;;;1.35;;
46036;SDS011;31769;49.304;8.428;2023-07-28T06:23:12;1.33;;;1.23;;
46036;SDS011;31769;49.304;8.428;2023-07-28T06:26:13;1.08;;;0.95;;
46036;SDS011;31769;49.304;8.428;2023-07-28T06:29:14;1.33;;;1.33;;
46036;SDS011;31769;49.304;8.428;2023-07-28T06:32:15;2.35;;;1.20;;
46036;SDS011;31769;49.304;8.428;2023-07-28T06:35:16;1.05;;;0.95;;
46036;SDS011;31769;49.304;8.428;2023-07-28T06:38:17;1.73;;;1.00;;
46036;SDS011;31769;49.304;8.428;2023-07-28T06:41:18;1.77;;;1.20;;
46036;SDS011;31769;49.304;8.428;2023-07-28T06:44:20;2.42;;;1.15;;
46036;SDS011;31769;49.304;8.428;2023-07-28T06:47:20;1.27;;;1.15;;
46036;SDS011;31769;49.304;8.428;2023-07-28T06:50:21;0.85;;;0.85;;
46036;SDS011;31769;49.304;8.428;2023-07-28T06:53:21;2.08;;;0.75;;
46036;SDS011;31769;49.304;8.428;2023-07-28T06:56:22;0.70;;;0.70;;
46036;SDS011;31769;49.304;8.428;2023-07-28T06:59:24;1.00;;;1.00;;
46036;SDS011;31769;49.304;8.428;2023-07-28T07:02:25;0.93;;;0.70;;
46036;SDS011;31769;49.304;8.428;2023-07-28T07:05:26;1.05;;;0.95;;
46036;SDS011;31769;49.304;8.428;2023-07-28T07:08:26;0.70;;;0.70;;
46036;SDS011;31769;49.304;8.428;2023-07-28T07:11:27;1.27;;;0.50;;
46036;SDS011;31769;49.304;8.428;2023-07-28T07:14:28;0.60;;;0.60;;
46036;SDS011;31769;49.304;8.428;2023-07-28T07:17:28;0.43;;;0.43;;
46036;SDS011;31769;49.304;8.428;2023-07-28T07:20:29;0.75;;;0.75;;
46036;SDS011;31769;49.304;8.428;2023-07-28T07:23:30;0.68;;;0.68;;
46036;SDS011;31769;49.304;8.428;2023-07-28T07:26:30;1.27;;;0.80;;
46036;SDS011;31769;49.304;8.428;2023-07-28T07:29:31;1.35;;;1.00;;
46036;SDS011;31769;49.304;8.428;2023-07-28T07:32:32;1.98;;;0.70;;
46036;SDS011;31769;49.304;8.428;2023-07-28T07:35:37;0.75;;;0.75;;
46036;SDS011;31769;49.304;8.428;2023-07-28T07:38:38;3.30;;;1.15;;
46036;SDS011;31769;49.304;8.428;2023-07-28T07:41:40;1.77;;;1.40;;
46036;SDS011;31769;49.304;8.428;2023-07-28T07:44:41;0.80;;;0.75;;
46036;SDS011;31769;49.304;8.428;2023-07-28T07:47:42;2.25;;;0.90;;
46036;SDS011;31769;49.304;8.428;2023-07-28T07:50:43;0.70;;;0.70;;
46036;SDS011;31769;49.304;8.428;2023-07-28T07:53:44;1.17;;;1.10;;
46036;SDS011;31769;49.304;8.428;2023-07-28T07:56:45;1.48;;;1.00;;
46036;SDS011;31769;49.304;8.428;2023-07-28T07:59:46;1.00;;;1.00;;
46036;SDS011;31769;49.304;8.428;2023-07-28T08:02:47;1.33;;;1.23;;
46036;SDS011;31769;49.304;8.428;2023-07-28T08:05:48;1.40;;;1.40;;
46036;SDS011;31769;49.304;8.428;2023-07-28T08:08:48;2.72;;;1.45;;
46036;SDS011;31769;49.304;8.428;2023-07-28T08:11:50;2.72;;;1.20;;
46036;SDS011;31769;49.304;8.428;2023-07-28T08:14:53;1.25;;;1.10;;
46036;SDS011;31769;49.304;8.428;2023-07-28T08:17:54;0.80;;;0.80;;
46036;SDS011;31769;49.304;8.428;2023-07-28T08:20:54;1.60;;;0.85;;
46036;SDS011;31769;49.304;8.428;2023-07-28T08:23:55;1.00;;;0.90;;
46036;SDS011;31769;49.304;8.428;2023-07-28T08:26:56;3.28;;;1.20;;
46036;SDS011;31769;49.304;8.428;2023-07-28T08:29:57;0.75;;;0.75;;
46036;SDS011;31769;49.304;8.428;2023-07-28T08:32:57;1.20;;;1.00;;
46036;SDS011;31769;49.304;8.428;2023-07-28T08:35:58;1.38;;;1.27;;
46036;SDS011;31769;49.304;8.428;2023-07-28T08:38:59;1.10;;;1.10;;
46036;SDS011;31769;49.304;8.428;2023-07-28T08:42:00;1.90;;;1.00;;
46036;SDS011;31769;49.304;8.428;2023-07-28T08:45:02;1.27;;;1.17;;
46036;SDS011;31769;49.304;8.428;2023-07-28T08:48:05;1.52;;;1.42;;
46036;SDS011;31769;49.304;8.428;2023-07-28T08:51:05;1.55;;;1.25;;
46036;SDS011;31769;49.304;8.428;2023-07-28T08:54:08;2.25;;;1.10;;
46036;SDS011;31769;49.304;8.428;2023-07-28T08:57:09;1.55;;;1.40;;
46036;SDS011;31769;49.304;8.428;2023-07-28T09:00:10;1.30;;;1.00;;
46036;SDS011;31769;49.304;8.428;2023-07-28T09:03:14;0.93;;;0.90;;
46036;SDS011;31769;49.304;8.428;2023-07-28T09:06:15;1.95;;;0.90;;
46036;SDS011;31769;49.304;8.428;2023-07-28T09:09:17;1.17;;;1.08;;
46036;SDS011;31769;49.304;8.428;2023-07-28T09:12:21;2.33;;;0.73;;
46036;SDS011;31769;49.304;8.428;2023-07-28T09:15:24;2.20;;;0.93;;
46036;SDS011;31769;49.304;8.428;2023-07-28T09:18:25;2.67;;;0.88;;
46036;SDS011;31769;49.304;8.428;2023-07-28T09:21:27;2.25;;;1.20;;
46036;SDS011;31769;49.304;8.428;2023-07-28T09:24:31;2.42;;;1.02;;
46036;SDS011;31769;49.304;8.428;2023-07-28T09:27:33;2.53;;;1.00;;
46036;SDS011;31769;49.304;8.428;2023-07-28T09:34:06;1.02;;;1.02;;
46036;SDS011;31769;49.304;8.428;2023-07-28T09:37:10;2.65;;;1.17;;
46036;SDS011;31769;49.304;8.428;2023-07-28T09:40:13;1.55;;;1.45;;
46036;SDS011;31769;49.304;8.428;2023-07-28T09:43:14;1.40;;;1.30;;
46036;SDS011;31769;49.304;8.428;2023-07-28T09:46:15;1.30;;;1.30;;
46036;SDS011;31769;49.304;8.428;2023-07-28T09:49:22;1.50;;;1.30;;
46036;SDS011;31769;49.304;8.428;2023-07-28T09:52:37;3.05;;;1.90;;
46036;SDS011;31769;49.304;8.428;2023-07-28T09:55:42;1.90;;;1.70;;
46036;SDS011;31769;49.304;8.428;2023-07-28T09:58:49;1.45;;;1.30;;
46036;SDS011;31769;49.304;8.428;2023-07-28T10:01:51;1.73;;;1.63;;
46036;SDS011;31769;49.304;8.428;2023-07-28T10:04:52;2.28;;;1.30;;
46036;SDS011;31769;49.304;8.428;2023-07-28T10:07:54;2.47;;;1.65;;
46036;SDS011;31769;49.304;8.428;2023-07-28T10:10:56;2.58;;;1.70;;
46036;SDS011;31769;49.304;8.428;2023-07-28T10:13:56;4.50;;;1.90;;
46036;SDS011;31769;49.304;8.428;2023-07-28T10:16:57;1.98;;;1.60;;
46036;SDS011;31769;49.304;8.428;2023-07-28T10:19:58;1.50;;;1.40;;
46036;SDS011;31769;49.304;8.428;2023-07-28T10:23:06;1.60;;;1.50;;
46036;SDS011;31769;49.304;8.428;2023-07-28T10:26:11;2.05;;;1.88;;
46036;SDS011;31769;49.304;8.428;2023-07-28T10:29:13;1.45;;;1.35;;
46036;SDS011;31769;49.304;8.428;2023-07-28T10:32:24;1.00;;;1.00;;
46036;SDS011;31769;49.304;8.428;2023-07-28T10:35:27;1.35;;;0.90;;
46036;SDS011;31769;49.304;8.428;2023-07-28T10:38:32;1.48;;;0.98;;
46036;SDS011;31769;49.304;8.428;2023-07-28T10:41:34;1.02;;;1.00;;
46036;SDS011;31769;49.304;8.428;2023-07-28T10:44:36;1.15;;;1.05;;
46036;SDS011;31769;49.304;8.428;2023-07-28T10:47:37;1.85;;;0.98;;
46036;SDS011;31769;49.304;8.428;2023-07-28T10:50:38;1.80;;;0.90;;
46036;SDS011;31769;49.304;8.428;2023-07-28T10:53:39;0.95;;;0.95;;
46036;SDS011;31769;49.304;8.428;2023-07-28T10:56:39;0.85;;;0.85;;
46036;SDS011;31769;49.304;8.428;2023-07-28T10:59:40;1.25;;;0.93;;
46036;SDS011;31769;49.304;8.428;2023-07-28T11:02:47;1.05;;;1.05;;
46036;SDS011;31769;49.304;8.428;2023-07-28T11:05:51;1.10;;;1.10;;
46036;SDS011;31769;49.304;8.428;2023-07-28T11:08:55;1.08;;;0.70;;
46036;SDS011;31769;49.304;8.428;2023-07-28T11:11:55;0.90;;;0.90;;
46036;SDS011;31769;49.304;8.428;2023-07-28T11:14:56;1.05;;;0.90;;
46036;SDS011;31769;49.304;8.428;2023-07-28T11:17:57;1.70;;;0.80;;
46036;SDS011;31769;49.304;8.428;2023-07-28T11:20:57;1.17;;;0.85;;
46036;SDS011;31769;49.304;8.428;2023-07-28T11:23:59;0.38;;;0.38;;
46036;SDS011;31769;49.304;8.428;2023-07-28T11:27:00;0.75;;;0.57;;
46036;SDS011;31769;49.304;8.428;2023-07-28T11:30:02;1.08;;;0.40;;
46036;SDS011;31769;49.304;8.428;2023-07-28T11:33:03;1.40;;;0.50;;
46036;SDS011;31769;49.304;8.428;2023-07-28T11:36:08;0.63;;;0.50;;
46036;SDS011;31769;49.304;8.428;2023-07-28T11:39:08;1.85;;;0.60;;
46036;SDS011;31769;49.304;8.428;2023-07-28T11:42:10;1.02;;;0.80;;
46036;SDS011;31769;49.304;8.428;2023-07-28T11:45:12;1.10;;;0.98;;
46036;SDS011;31769;49.304;8.428;2023-07-28T11:48:15;1.15;;;0.88;;
46036;SDS011;31769;49.304;8.428;2023-07-28T11:51:16;0.47;;;0.43;;
46036;SDS011;31769;49.304;8.428;2023-07-28T11:54:17;0.80;;;0.45;;
46036;SDS011;31769;49.304;8.428;2023-07-28T11:57:21;0.60;;;0.60;;
46036;SDS011;31769;49.304;8.428;2023-07-28T12:00:32;1.45;;;0.55;;
46036;SDS011;31769;49.304;8.428;2023-07-28T12:03:36;0.80;;;0.30;;
46036;SDS011;31769;49.304;8.428;2023-07-28T12:06:59;0.43;;;0.43;;
46036;SDS011;31769;49.304;8.428;2023-07-28T12:10:04;0.93;;;0.50;;
46036;SDS011;31769;49.304;8.428;2023-07-28T12:13:09;0.82;;;0.47;;
46036;SDS011;31769;49.304;8.428;2023-07-28T12:16:10;2.97;;;0.50;;
46036;SDS011;31769;49.304;8.428;2023-07-28T12:19:31;1.77;;;0.60;;
46036;SDS011;31769;49.304;8.428;2023-07-28T12:22:32;1.42;;;0.80;;
46036;SDS011;31769;49.304;8.428;2023-07-28T12:25:34;1.38;;;1.08;;
46036;SDS011;31769;49.304;8.428;2023-07-28T12:28:36;2.35;;;1.40;;
46036;SDS011;31769;49.304;8.428;2023-07-28T12:31:37;1.48;;;1.38;;
46036;SDS011;31769;49.304;8.428;2023-07-28T12:34:38;3.60;;;1.50;;
46036;SDS011;31769;49.304;8.428;2023-07-28T12:37:40;3.47;;;1.98;;
46036;SDS011;31769;49.304;8.428;2023-07-28T12:40:41;2.50;;;2.28;;
46036;SDS011;31769;49.304;8.428;2023-07-28T12:43:42;2.58;;;2.38;;
46036;SDS011;31769;49.304;8.428;2023-07-28T12:46:43;3.45;;;2.60;;
46036;SDS011;31769;49.304;8.428;2023-07-28T12:49:43;3.67;;;2.88;;
46036;SDS011;31769;49.304;8.428;2023-07-28T12:52:44;3.65;;;2.80;;
46036;SDS011;31769;49.304;8.428;2023-07-28T12:55:45;5.57;;;2.85;;
46036;SDS011;31769;49.304;8.428;2023-07-28T12:58:45;2.97;;;2.50;;
46036;SDS011;31769;49.304;8.428;2023-07-28T13:01:46;4.68;;;2.88;;
46036;SDS011;31769;49.304;8.428;2023-07-28T13:04:46;3.97;;;2.78;;
46036;SDS011;31769;49.304;8.428;2023-07-28T13:07:47;3.22;;;3.03;;
46036;SDS011;31769;49.304;8.428;2023-07-28T13:10:48;3.13;;;2.83;;
46036;SDS011;31769;49.304;8.428;2023-07-28T13:13:48;3.58;;;2.42;;
46036;SDS011;31769;49.304;8.428;2023-07-28T13:16:49;4.55;;;2.85;;
46036;SDS011;31769;49.304;8.428;2023-07-28T13:19:50;2.90;;;2.60;;
46036;SDS011;31769;49.304;8.428;2023-07-28T13:22:51;3.70;;;2.65;;
46036;SDS011;31769;49.304;8.428;2023-07-28T13:25:52;3.63;;;3.15;;
46036;SDS011;31769;49.304;8.428;2023-07-28T13:28:52;3.22;;;2.80;;
46036;SDS011;31769;49.304;8.428;2023-07-28T13:31:56;4.05;;;2.75;;
46036;SDS011;31769;49.304;8.428;2023-07-28T13:35:00;2.80;;;2.60;;
46036;SDS011;31769;49.304;8.428;2023-07-28T13:38:00;3.40;;;3.13;;
46036;SDS011;31769;49.304;8.428;2023-07-28T13:41:03;3.00;;;2.70;;
46036;SDS011;31769;49.304;8.428;2023-07-28T13:44:08;3.40;;;2.70;;
46036;SDS011;31769;49.304;8.428;2023-07-28T13:47:09;4.85;;;3.00;;
46036;SDS011;31769;49.304;8.428;2023-07-28T13:50:10;3.75;;;3.45;;
46036;SDS011;31769;49.304;8.428;2023-07-28T13:53:10;3.63;;;3.30;;
46036;SDS011;31769;49.304;8.428;2023-07-28T13:56:11;3.78;;;2.80;;
46036;SDS011;31769;49.304;8.428;2023-07-28T13:59:12;3.42;;;3.13;;
46036;SDS011;31769;49.304;8.428;2023-07-28T14:02:13;3.78;;;2.95;;
46036;SDS011;31769;49.304;8.428;2023-07-28T14:05:15;3.95;;;3.28;;
46036;SDS011;31769;49.304;8.428;2023-07-28T14:08:15;3.67;;;3.22;;
46036;SDS011;31769;49.304;8.428;2023-07-28T14:11:16;3.78;;;3.30;;
46036;SDS011;31769;49.304;8.428;2023-07-28T14:14:17;5.45;;;3.55;;
46036;SDS011;31769;49.304;8.428;2023-07-28T14:17:17;3.60;;;3.30;;
46036;SDS011;31769;49.304;8.428;2023-07-28T14:20:18;4.22;;;3.80;;
46036;SDS011;31769;49.304;8.428;2023-07-28T14:23:26;3.58;;;3.17;;
46036;SDS011;31769;49.304;8.428;2023-07-28T14:26:27;4.15;;;3.17;;
46036;SDS011;31769;49.304;8.428;2023-07-28T14:29:28;5.38;;;3.38;;
46036;SDS011;31769;49.304;8.428;2023-07-28T14:32:29;3.60;;;3.30;;
46036;SDS011;31769;49.304;8.428;2023-07-28T14:35:29;4.53;;;3.58;;
46036;SDS011;31769;49.304;8.428;2023-07-28T14:38:30;3.08;;;2.25;;
46036;SDS011;31769;49.304;8.428;2023-07-28T14:41:31;3.17;;;2.40;;
46036;SDS011;31769;49.304;8.428;2023-07-28T14:44:31;4.30;;;2.50;;
46036;SDS011;31769;49.304;8.428;2023-07-28T14:47:32;3.33;;;2.50;;
46036;SDS011;31769;49.304;8.428;2023-07-28T14:50:33;4.30;;;2.67;;
46036;SDS011;31769;49.304;8.428;2023-07-28T14:53:34;2.85;;;2.63;;
46036;SDS011;31769;49.304;8.428;2023-07-28T14:56:36;6.03;;;2.47;;
46036;SDS011;31769;49.304;8.428;2023-07-28T14:59:37;4.60;;;2.85;;
46036;SDS011;31769;49.304;8.428;2023-07-28T15:02:37;4.53;;;3.15;;
46036;SDS011;31769;49.304;8.428;2023-07-28T15:05:38;2.95;;;2.30;;
46036;SDS011;31769;49.304;8.428;2023-07-28T15:08:39;3.45;;;2.60;;
46036;SDS011;31769;49.304;8.428;2023-07-28T15:11:39;2.67;;;2.47;;
46036;SDS011;31769;49.304;8.428;2023-07-28T15:14:40;4.18;;;2.35;;
46036;SDS011;31769;49.304;8.428;2023-07-28T15:17:41;2.60;;;2.47;;
46036;SDS011;31769;49.304;8.428;2023-07-28T15:20:42;3.47;;;2.63;;
46036;SDS011;31769;49.304;8.428;2023-07-28T15:23:43;2.40;;;2.20;;
46036;SDS011;31769;49.304;8.428;2023-07-28T15:26:46;2.83;;;2.60;;
46036;SDS011;31769;49.304;8.428;2023-07-28T15:29:49;2.63;;;2.38;;
46036;SDS011;31769;49.304;8.428;2023-07-28T15:32:50;4.93;;;3.00;;
46036;SDS011;31769;49.304;8.428;2023-07-28T15:35:51;2.92;;;2.72;;
46036;SDS011;31769;49.304;8.428;2023-07-28T15:38:51;3.40;;;3.08;;
46036;SDS011;31769;49.304;8.428;2023-07-28T15:41:52;3.30;;;2.80;;
46036;SDS011;31769;49.304;8.428;2023-07-28T15:44:53;4.43;;;2.90;;
46036;SDS011;31769;49.304;8.428;2023-07-28T15:47:53;3.28;;;2.70;;
46036;SDS011;31769;49.304;8.428;2023-07-28T15:50:54;3.65;;;2.92;;
46036;SDS011;31769;49.304;8.428;2023-07-28T15:53:55;2.95;;;2.53;;
46036;SDS011;31769;49.304;8.428;2023-07-28T15:56:55;4.18;;;3.78;;
46036;SDS011;31769;49.304;8.428;2023-07-28T15:59:56;2.90;;;2.70;;
46036;SDS011;31769;49.304;8.428;2023-07-28T16:02:56;3.55;;;3.25;;
46036;SDS011;31769;49.304;8.428;2023-07-28T16:05:58;4.72;;;4.20;;
46036;SDS011;31769;49.304;8.428;2023-07-28T16:08:58;4.93;;;3.22;;
46036;SDS011;31769;49.304;8.428;2023-07-28T16:11:59;4.00;;;3.15;;
46036;SDS011;31769;49.304;8.428;2023-07-28T16:15:00;3.75;;;2.92;;
46036;SDS011;31769;49.304;8.428;2023-07-28T16:18:00;5.00;;;3.15;;
46036;SDS011;31769;49.304;8.428;2023-07-28T16:21:01;3.70;;;3.30;;
46036;SDS011;31769;49.304;8.428;2023-07-28T16:24:02;3.58;;;3.08;;
46036;SDS011;31769;49.304;8.428;2023-07-28T16:27:02;3.63;;;3.33;;
46036;SDS011;31769;49.304;8.428;2023-07-28T16:30:04;3.90;;;3.55;;
46036;SDS011;31769;49.304;8.428;2023-07-28T16:33:06;4.35;;;3.85;;
46036;SDS011;31769;49.304;8.428;2023-07-28T16:36:07;3.83;;;3.22;;
46036;SDS011;31769;49.304;8.428;2023-07-28T16:39:07;3.15;;;2.88;;
46036;SDS011;31769;49.304;8.428;2023-07-28T16:42:09;3.33;;;2.95;;
46036;SDS011;31769;49.304;8.428;2023-07-28T16:45:09;5.53;;;3.83;;
46036;SDS011;31769;49.304;8.428;2023-07-28T16:48:10;4.38;;;3.58;;
46036;SDS011;31769;49.304;8.428;2023-07-28T16:51:11;5.68;;;3.72;;
46036;SDS011;31769;49.304;8.428;2023-07-28T16:54:12;3.83;;;3.42;;
46036;SDS011;31769;49.304;8.428;2023-07-28T16:57:12;4.10;;;3.70;;
46036;SDS011;31769;49.304;8.428;2023-07-28T17:00:14;4.07;;;3.70;;
46036;SDS011;31769;49.304;8.428;2023-07-28T17:03:14;5.40;;;3.63;;
46036;SDS011;31769;49.304;8.428;2023-07-28T17:06:15;5.32;;;3.47;;
46036;SDS011;31769;49.304;8.428;2023-07-28T17:09:16;4.53;;;3.38;;
46036;SDS011;31769;49.304;8.428;2023-07-28T17:12:17;3.70;;;3.20;;
46036;SDS011;31769;49.304;8.428;2023-07-28T17:15:18;4.45;;;3.30;;
46036;SDS011;31769;49.304;8.428;2023-07-28T17:18:18;3.80;;;2.90;;
46036;SDS011;31769;49.304;8.428;2023-07-28T17:21:19;3.75;;;3.25;;
46036;SDS011;31769;49.304;8.428;2023-07-28T17:24:20;4.18;;;3.80;;
46036;SDS011;31769;49.304;8.428;2023-07-28T17:27:21;5.32;;;3.40;;
46036;SDS011;31769;49.304;8.428;2023-07-28T17:30:21;3.15;;;2.90;;
46036;SDS011;31769;49.304;8.428;2023-07-28T17:33:22;5.25;;;3.90;;
46036;SDS011;31769;49.304;8.428;2023-07-28T17:36:23;3.90;;;3.00;;
46036;SDS011;31769;49.304;8.428;2023-07-28T17:39:23;2.97;;;2.65;;
46036;SDS011;31769;49.304;8.428;2023-07-28T17:42:24;5.43;;;3.15;;
46036;SDS011;31769;49.304;8.428;2023-07-28T17:45:26;2.90;;;2.58;;
46036;SDS011;31769;49.304;8.428;2023-07-28T17:48:27;6.25;;;3.38;;
46036;SDS011;31769;49.304;8.428;2023-07-28T17:51:27;3.28;;;2.97;;
46036;SDS011;31769;49.304;8.428;2023-07-28T17:54:28;3.22;;;2.85;;
46036;SDS011;31769;49.304;8.428;2023-07-28T17:57:29;4.05;;;3.47;;
46036;SDS011;31769;49.304;8.428;2023-07-28T18:00:30;3.47;;;3.08;;
46036;SDS011;31769;49.304;8.428;2023-07-28T18:03:30;3.35;;;3.05;;
46036;SDS011;31769;49.304;8.428;2023-07-28T18:06:31;9.65;;;5.47;;
46036;SDS011;31769;49.304;8.428;2023-07-28T18:09:32;4.70;;;3.75;;
46036;SDS011;31769;49.304;8.428;2023-07-28T18:12:32;7.25;;;6.50;;
46036;SDS011;31769;49.304;8.428;2023-07-28T18:15:33;4.65;;;3.85;;
46036;SDS011;31769;49.304;8.428;2023-07-28T18:18:34;10.68;;;5.97;;
46036;SDS011;31769;49.304;8.428;2023-07-28T18:21:34;5.15;;;4.70;;